createdAt,value
2019-05-15T00:00:48.021Z,8.41
2019-05-15T00:03:19.781Z,8.42
2019-05-15T00:05:51.710Z,8.35
2019-05-15T00:08:22.776Z,8.40
2019-05-15T00:10:53.856Z,8.37
2019-05-15T00:13:25.430Z,8.34
2019-05-15T00:15:59.018Z,8.33
2019-05-15T00:18:30.387Z,8.34
2019-05-15T00:21:01.587Z,8.37
2019-05-15T00:23:33.355Z,8.35
2019-05-15T00:26:05.643Z,8.35
2019-05-15T00:28:38.818Z,8.32
2019-05-15T00:31:09.833Z,8.25
2019-05-15T00:33:41.237Z,8.16
2019-05-15T00:36:12.349Z,8.12
2019-05-15T00:38:44.063Z,8.12
2019-05-15T00:41:18.342Z,8.07
2019-05-15T00:43:49.541Z,8.13
2019-05-15T00:46:20.758Z,8.12
2019-05-15T00:48:51.922Z,8.13
2019-05-15T00:51:24.094Z,8.11
2019-05-15T00:53:55.494Z,8.10
2019-05-15T00:56:28.535Z,8.04
2019-05-15T00:58:59.617Z,8.04
2019-05-15T01:01:31.829Z,8.00
2019-05-15T01:04:03.938Z,7.99
2019-05-15T01:06:35.401Z,7.96
2019-05-15T01:09:08.337Z,7.96
2019-05-15T01:11:40.779Z,7.99
2019-05-15T01:14:12.425Z,8.03
2019-05-15T01:16:43.460Z,8.05
2019-05-15T01:19:15.111Z,8.04
2019-05-15T01:21:48.104Z,8.04
2019-05-15T01:24:19.448Z,7.95
2019-05-15T01:26:50.572Z,7.92
2019-05-15T01:29:36.482Z,7.89
2019-05-15T01:31:59.122Z,7.76
2019-05-15T01:34:29.895Z,7.73
2019-05-15T01:37:01.275Z,7.54
2019-05-15T01:39:32.451Z,7.46
2019-05-15T01:42:04.368Z,7.48
2019-05-15T01:44:36.308Z,7.53
2019-05-15T01:47:08.506Z,7.53
2019-05-15T01:49:40.147Z,7.42
2019-05-15T01:52:12.068Z,7.40
2019-05-15T01:54:43.230Z,7.35
2019-05-15T01:57:14.657Z,7.35
2019-05-15T01:59:54.788Z,7.35
2019-05-15T02:02:20.397Z,7.38
2019-05-15T02:04:51.817Z,7.30
2019-05-15T02:07:23.601Z,7.27
2019-05-15T02:09:54.788Z,7.16
2019-05-15T02:12:28.593Z,7.16
2019-05-15T02:14:59.186Z,7.18
2019-05-15T02:17:32.000Z,7.13
2019-05-15T02:20:04.053Z,7.03
2019-05-15T02:22:35.217Z,7.04
2019-05-15T02:25:08.613Z,6.93
2019-05-15T02:27:40.183Z,6.88
2019-05-15T02:30:22.406Z,6.90
2019-05-15T02:32:45.428Z,6.94
2019-05-15T02:35:18.578Z,6.85
2019-05-15T02:37:50.078Z,6.82
2019-05-15T02:40:22.035Z,6.83
2019-05-15T02:42:53.752Z,6.76
2019-05-15T02:45:25.274Z,6.85
2019-05-15T02:47:59.468Z,6.77
2019-05-15T02:50:29.417Z,6.75
2019-05-15T02:53:00.947Z,6.66
2019-05-15T02:55:32.022Z,6.62
2019-05-15T02:58:03.058Z,6.66
2019-05-15T03:00:43.906Z,6.60
2019-05-15T03:03:09.473Z,6.58
2019-05-15T03:05:41.242Z,6.55
2019-05-15T03:08:12.808Z,6.53
2019-05-15T03:10:44.023Z,6.53
2019-05-15T03:13:18.780Z,6.55
2019-05-15T03:15:49.281Z,6.52
2019-05-15T03:18:21.061Z,6.52
2019-05-15T03:20:52.436Z,6.44
2019-05-15T03:23:23.871Z,6.42
2019-05-15T03:25:55.469Z,6.40
2019-05-15T03:28:29.499Z,6.37
2019-05-15T03:31:26.245Z,6.38
2019-05-15T03:33:45.477Z,6.33
2019-05-15T03:36:14.279Z,6.31
2019-05-15T03:38:49.601Z,6.23
2019-05-15T03:41:19.711Z,6.24
2019-05-15T03:43:51.028Z,6.21
2019-05-15T03:46:22.079Z,6.18
2019-05-15T03:48:53.780Z,6.23
2019-05-15T03:51:24.998Z,6.25
2019-05-15T03:54:00.068Z,6.25
2019-05-15T03:56:29.749Z,6.24
2019-05-15T03:59:01.460Z,6.26
2019-05-15T04:01:38.797Z,6.25
2019-05-15T04:04:09.438Z,6.21
2019-05-15T04:06:39.667Z,6.12
2019-05-15T04:09:12.222Z,6.13
2019-05-15T04:11:43.808Z,6.13
2019-05-15T04:14:15.264Z,6.13
2019-05-15T04:16:49.535Z,6.12
2019-05-15T04:19:20.113Z,6.05
2019-05-15T04:21:51.596Z,6.07
2019-05-15T04:24:25.818Z,6.04
2019-05-15T04:27:00.024Z,6.05
2019-05-15T04:29:32.284Z,5.97
2019-05-15T04:32:05.961Z,6.00
2019-05-15T04:34:39.475Z,6.03
2019-05-15T04:37:09.796Z,6.04
2019-05-15T04:39:41.063Z,6.02
2019-05-15T04:42:12.902Z,5.97
2019-05-15T04:44:44.662Z,6.01
2019-05-15T04:47:19.006Z,5.95
2019-05-15T04:49:50.364Z,5.97
2019-05-15T04:52:22.796Z,6.03
2019-05-15T04:54:54.256Z,5.99
2019-05-15T04:57:29.044Z,6.00
2019-05-15T04:59:59.590Z,6.00
2019-05-15T05:02:32.400Z,5.98
2019-05-15T05:05:09.681Z,5.96
2019-05-15T05:07:39.547Z,5.95
2019-05-15T05:10:11.465Z,5.97
2019-05-15T05:12:43.112Z,5.89
2019-05-15T05:15:14.600Z,5.99
2019-05-15T05:17:45.972Z,5.95
2019-05-15T05:20:17.929Z,5.93
2019-05-15T05:22:49.507Z,5.97
2019-05-15T05:25:21.336Z,5.96
2019-05-15T05:27:52.817Z,5.99
2019-05-15T05:30:24.075Z,5.99
2019-05-15T05:32:57.920Z,6.04
2019-05-15T05:35:28.860Z,5.97
2019-05-15T05:38:00.628Z,5.92
2019-05-15T05:40:32.431Z,6.02
2019-05-15T05:43:03.841Z,5.96
2019-05-15T05:45:35.247Z,5.99
2019-05-15T05:48:08.824Z,6.00
2019-05-15T05:50:44.314Z,5.98
2019-05-15T05:53:15.125Z,6.00
2019-05-15T05:55:46.099Z,6.02
2019-05-15T05:58:19.653Z,5.90
2019-05-15T06:00:51.098Z,5.92
2019-05-15T06:03:22.343Z,5.97
2019-05-15T06:05:54.096Z,6.04
2019-05-15T06:08:25.029Z,5.97
2019-05-15T06:10:58.327Z,6.00
2019-05-15T06:13:29.250Z,6.06
2019-05-15T06:16:00.577Z,6.12
2019-05-15T06:18:32.416Z,6.13
2019-05-15T06:21:03.258Z,6.14
2019-05-15T06:23:36.217Z,6.17
2019-05-15T06:26:09.608Z,6.18
2019-05-15T06:28:41.017Z,6.16
2019-05-15T06:31:12.299Z,6.23
2019-05-15T06:33:44.710Z,6.21
2019-05-15T06:36:17.989Z,6.20
2019-05-15T06:38:49.623Z,6.25
2019-05-15T06:41:21.497Z,6.28
2019-05-15T06:43:53.158Z,6.34
2019-05-15T06:46:24.956Z,6.36
2019-05-15T06:48:58.123Z,6.47
2019-05-15T06:51:30.292Z,6.59
2019-05-15T06:54:03.951Z,6.68
2019-05-15T06:56:35.371Z,6.60
2019-05-15T06:59:08.667Z,6.68
2019-05-15T07:01:40.703Z,6.64
2019-05-15T07:04:12.424Z,6.71
2019-05-15T07:06:44.068Z,6.76
2019-05-15T07:09:17.958Z,6.79
2019-05-15T07:11:49.202Z,6.89
2019-05-15T07:14:20.624Z,6.92
2019-05-15T07:16:51.649Z,6.94
2019-05-15T07:19:22.607Z,6.98
2019-05-15T07:21:54.330Z,6.97
2019-05-15T07:24:25.269Z,7.06
2019-05-15T07:26:58.945Z,7.10
2019-05-15T07:29:29.474Z,7.18
2019-05-15T07:32:00.269Z,7.21
2019-05-15T07:34:33.787Z,7.19
2019-05-15T07:37:04.607Z,7.13
2019-05-15T07:39:35.362Z,7.11
2019-05-15T07:42:08.445Z,7.09
2019-05-15T07:44:39.101Z,7.10
2019-05-15T07:47:09.793Z,7.07
2019-05-15T07:49:41.507Z,7.12
2019-05-15T07:52:12.348Z,7.13
2019-05-15T07:54:43.181Z,7.18
2019-05-15T07:57:13.837Z,7.22
2019-05-15T07:59:44.535Z,7.21
2019-05-15T08:02:15.365Z,7.21
2019-05-15T08:04:48.270Z,7.26
2019-05-15T08:07:19.333Z,7.22
2019-05-15T08:09:50.876Z,7.30
2019-05-15T08:12:21.600Z,7.28
2019-05-15T08:14:52.571Z,7.26
2019-05-15T08:17:28.973Z,7.30
2019-05-15T08:20:02.591Z,7.34
2019-05-15T08:22:34.928Z,7.43
2019-05-15T08:25:11.296Z,7.40
2019-05-15T08:27:40.221Z,7.47
2019-05-15T08:30:14.050Z,7.49
2019-05-15T08:32:45.301Z,7.50
2019-05-15T08:35:19.179Z,7.53
2019-05-15T08:37:50.937Z,7.57
2019-05-15T08:40:21.927Z,7.60
2019-05-15T08:42:58.687Z,7.69
2019-05-15T08:45:25.298Z,7.70
2019-05-15T08:47:58.509Z,7.69
2019-05-15T08:50:28.864Z,7.72
2019-05-15T08:52:59.877Z,7.73
2019-05-15T08:55:30.978Z,7.80
2019-05-15T08:58:07.855Z,7.78
2019-05-15T09:00:34.585Z,7.87
2019-05-15T09:03:08.567Z,7.81
2019-05-15T09:05:39.417Z,7.89
2019-05-15T09:08:10.757Z,7.88
2019-05-15T09:10:41.773Z,7.95
2019-05-15T09:13:12.701Z,8.00
2019-05-15T09:15:44.121Z,7.94
2019-05-15T09:18:17.289Z,7.97
2019-05-15T09:20:49.499Z,8.01
2019-05-15T09:23:20.670Z,8.03
2019-05-15T09:25:51.618Z,8.10
2019-05-15T09:28:22.877Z,8.11
2019-05-15T09:30:53.529Z,8.10
2019-05-15T09:33:24.453Z,8.14
2019-05-15T09:35:54.984Z,8.18
2019-05-15T09:38:25.885Z,8.16
2019-05-15T09:40:58.540Z,8.27
2019-05-15T09:43:29.481Z,8.31
2019-05-15T09:46:00.190Z,8.25
2019-05-15T09:48:31.499Z,8.24
2019-05-15T09:51:02.177Z,8.31
2019-05-15T09:53:34.653Z,8.31
2019-05-15T09:56:08.079Z,8.38
2019-05-15T09:58:38.998Z,8.49
2019-05-15T10:01:09.779Z,8.54
2019-05-15T10:03:44.324Z,8.56
2019-05-15T10:06:13.798Z,8.57
2019-05-15T10:08:48.724Z,8.54
2019-05-15T10:11:19.737Z,8.65
2019-05-15T10:13:50.840Z,8.70
2019-05-15T10:16:21.737Z,8.74
2019-05-15T10:18:52.527Z,8.69
2019-05-15T10:21:28.705Z,8.64
2019-05-15T10:23:58.828Z,8.69
2019-05-15T10:26:28.651Z,8.66
2019-05-15T10:28:59.578Z,8.70
2019-05-15T10:31:30.458Z,8.75
2019-05-15T10:34:02.524Z,8.73
2019-05-15T10:36:33.498Z,8.67
2019-05-15T10:39:08.381Z,8.74
2019-05-15T10:41:39.401Z,8.79
2019-05-15T10:44:10.419Z,8.80
2019-05-15T10:46:41.270Z,8.85
2019-05-15T10:49:12.480Z,8.90
2019-05-15T10:51:43.240Z,8.94
2019-05-15T10:54:14.403Z,8.99
2019-05-15T10:56:45.994Z,8.93
2019-05-15T10:59:18.299Z,8.93
2019-05-15T11:01:49.780Z,8.98
2019-05-15T11:04:22.033Z,9.00
2019-05-15T11:06:53.066Z,9.02
2019-05-15T11:09:24.075Z,8.97
2019-05-15T11:11:54.985Z,8.97
2019-05-15T11:14:28.474Z,8.99
2019-05-15T11:16:59.006Z,9.03
2019-05-15T11:19:36.100Z,9.08
2019-05-15T11:22:03.433Z,9.06
2019-05-15T11:24:34.332Z,9.10
2019-05-15T11:27:05.558Z,9.13
2019-05-15T11:29:38.189Z,9.15
2019-05-15T11:32:08.968Z,9.13
2019-05-15T11:34:39.999Z,9.16
2019-05-15T11:37:11.319Z,9.26
2019-05-15T11:39:46.136Z,9.32
2019-05-15T11:42:14.827Z,9.31
2019-05-15T11:44:48.311Z,9.39
2019-05-15T11:47:18.557Z,9.44
2019-05-15T11:49:49.503Z,9.46
2019-05-15T11:52:20.564Z,9.40
2019-05-15T11:54:51.696Z,9.43
2019-05-15T11:57:37.338Z,9.52
2019-05-15T11:59:59.439Z,9.58
2019-05-15T12:02:30.845Z,9.56
2019-05-15T12:05:02.202Z,9.59
2019-05-15T12:07:33.277Z,9.63
2019-05-15T12:10:09.851Z,9.64
2019-05-15T12:12:38.912Z,9.70
2019-05-15T12:15:10.658Z,9.68
2019-05-15T12:17:42.085Z,9.66
2019-05-15T12:20:13.480Z,9.71
2019-05-15T12:22:44.341Z,9.77
2019-05-15T12:25:18.000Z,9.78
2019-05-15T12:27:49.239Z,9.83
2019-05-15T12:30:21.888Z,9.85
2019-05-15T12:32:52.737Z,9.99
2019-05-15T12:35:30.489Z,10.04
2019-05-15T12:38:04.385Z,10.10
2019-05-15T13:01:16.518Z,10.04
2019-05-15T13:03:35.585Z,10.05
2019-05-15T13:06:08.081Z,10.08
2019-05-15T13:08:48.899Z,10.11
2019-05-15T13:11:23.798Z,10.15
2019-05-15T13:13:54.618Z,10.12
2019-05-15T13:16:28.011Z,10.19
2019-05-15T13:18:58.789Z,10.20
2019-05-15T13:21:29.845Z,10.21
2019-05-15T13:24:01.868Z,10.26
2019-05-15T13:26:32.778Z,10.28
2019-05-15T13:29:03.551Z,10.33
2019-05-15T13:31:34.440Z,10.35
2019-05-15T13:34:07.962Z,10.35
2019-05-15T13:36:39.261Z,10.35
2019-05-15T13:39:10.377Z,10.32
2019-05-15T13:41:41.466Z,10.33
2019-05-15T13:44:12.525Z,10.40
2019-05-15T13:46:43.190Z,10.39
2019-05-15T13:49:14.059Z,10.42
2019-05-15T13:51:44.329Z,10.49
2019-05-15T13:54:14.440Z,10.62
2019-05-15T13:56:44.258Z,10.69
2019-05-15T13:59:14.321Z,10.77
2019-05-15T14:01:44.292Z,10.80
2019-05-15T14:04:14.256Z,10.76
2019-05-15T14:06:44.336Z,10.75
2019-05-15T14:09:14.795Z,10.75
2019-05-15T14:11:44.979Z,10.72
2019-05-15T14:14:14.830Z,10.72
2019-05-15T14:16:45.152Z,10.68
2019-05-15T14:19:15.400Z,10.74
2019-05-15T14:21:45.448Z,10.72
2019-05-15T14:24:15.455Z,10.78
2019-05-15T14:26:45.216Z,10.77
2019-05-15T14:29:15.129Z,10.78
2019-05-15T14:31:48.351Z,10.86
2019-05-15T14:34:18.724Z,10.88
2019-05-15T14:36:48.703Z,10.94
2019-05-15T14:39:21.007Z,10.94
2019-05-15T14:41:50.814Z,10.95
2019-05-15T14:44:21.830Z,11.01
2019-05-15T14:46:52.086Z,11.04
2019-05-15T14:49:33.295Z,11.05
2019-05-15T14:52:08.890Z,11.13
2019-05-15T14:54:35.142Z,11.19
2019-05-15T14:57:05.100Z,11.18
2019-05-15T14:59:34.803Z,11.21
2019-05-15T15:02:04.930Z,11.19
2019-05-15T15:04:34.687Z,11.22
2019-05-15T15:07:05.019Z,11.28
2019-05-15T15:09:34.845Z,11.31
2019-05-15T15:12:04.977Z,11.36
2019-05-15T15:14:34.859Z,11.52
2019-05-15T15:17:04.981Z,11.74
2019-05-15T15:19:35.100Z,11.88
2019-05-15T15:22:05.191Z,11.93
2019-05-15T15:24:35.109Z,12.03
2019-05-15T15:27:05.131Z,12.03
2019-05-15T15:29:35.273Z,12.08
2019-05-15T15:32:05.492Z,12.05
2019-05-15T15:34:35.288Z,12.03
2019-05-15T15:37:08.231Z,12.07
2019-05-15T15:39:38.700Z,12.06
2019-05-15T15:42:08.943Z,12.07
2019-05-15T15:44:39.580Z,12.13
2019-05-15T15:47:09.780Z,12.13
2019-05-15T15:49:40.100Z,12.17
2019-05-15T15:52:10.363Z,12.27
2019-05-15T15:54:40.793Z,12.35
2019-05-15T15:57:11.592Z,12.37
2019-05-15T15:59:42.296Z,12.35
2019-05-15T16:02:12.546Z,12.39
2019-05-15T16:04:42.784Z,12.37
2019-05-15T16:07:17.807Z,12.38
2019-05-15T16:09:48.681Z,12.39
2019-05-15T16:12:19.002Z,12.40
2019-05-15T16:14:49.427Z,12.37
2019-05-15T16:17:19.661Z,12.39
2019-05-15T16:19:50.279Z,12.43
2019-05-15T16:22:20.283Z,12.45
2019-05-15T16:24:51.812Z,12.48
2019-05-15T16:27:22.188Z,12.45
2019-05-15T16:29:53.651Z,12.48
2019-05-15T16:32:24.707Z,12.47
2019-05-15T16:34:55.778Z,12.48
2019-05-15T16:37:26.436Z,12.49
2019-05-15T16:39:57.853Z,12.46
2019-05-15T16:42:28.645Z,12.50
2019-05-15T16:44:59.457Z,12.52
2019-05-15T16:47:30.193Z,12.55
2019-05-15T16:50:01.233Z,12.57
2019-05-15T16:52:31.647Z,12.55
2019-05-15T16:55:02.488Z,12.55
2019-05-15T16:57:32.743Z,12.55
2019-05-15T17:00:03.588Z,12.55
2019-05-15T17:02:35.183Z,12.52
2019-05-15T17:05:06.144Z,12.47
2019-05-15T17:07:38.833Z,12.36
2019-05-15T17:10:08.904Z,12.26
2019-05-15T17:12:40.287Z,12.14
2019-05-15T17:15:11.212Z,11.97
2019-05-15T17:17:41.467Z,11.83
2019-05-15T17:20:19.135Z,11.70
2019-05-15T17:23:19.950Z,11.54
2019-05-15T17:25:58.919Z,11.44
2019-05-15T17:28:30.568Z,11.34
2019-05-15T17:31:01.042Z,11.23
2019-05-15T17:33:30.966Z,11.17
2019-05-15T17:36:01.224Z,11.14
2019-05-15T17:38:31.960Z,11.08
2019-05-15T17:41:02.626Z,11.08
2019-05-15T17:43:32.913Z,10.97
2019-05-15T17:46:02.882Z,10.93
2019-05-15T17:48:32.816Z,10.87
2019-05-15T17:51:02.860Z,10.70
2019-05-15T17:53:32.674Z,10.62
2019-05-15T17:56:02.653Z,10.50
2019-05-15T17:58:32.818Z,10.43
2019-05-15T18:01:02.855Z,10.45
2019-05-15T18:03:32.752Z,10.42
2019-05-15T18:06:02.670Z,10.27
2019-05-15T18:08:32.474Z,10.22
2019-05-15T18:11:02.414Z,10.15
2019-05-15T18:13:32.808Z,10.08
2019-05-15T18:16:04.544Z,10.11
2019-05-15T18:18:34.821Z,10.09
2019-05-15T18:21:04.809Z,9.99
2019-05-15T18:23:35.849Z,9.84
2019-05-15T18:26:05.570Z,9.76
2019-05-15T18:28:38.578Z,9.69
2019-05-15T18:31:09.167Z,9.64
2019-05-15T18:33:53.097Z,9.52
2019-05-15T18:36:13.953Z,9.43
2019-05-15T18:38:44.983Z,9.39
2019-05-15T18:41:17.990Z,9.31
2019-05-15T18:43:48.739Z,9.25
2019-05-15T18:46:19.515Z,9.26
2019-05-15T18:48:50.256Z,9.26
2019-05-15T18:51:21.011Z,9.28
2019-05-15T18:53:51.862Z,9.31
2019-05-15T18:56:22.772Z,9.21
2019-05-15T18:58:54.056Z,9.20
2019-05-15T19:01:25.099Z,9.24
2019-05-15T19:03:58.167Z,9.13
2019-05-15T19:06:29.359Z,9.17
2019-05-15T19:09:00.832Z,9.16
2019-05-15T19:11:33.489Z,9.07
2019-05-15T19:14:04.682Z,9.03
2019-05-15T19:16:38.710Z,9.07
2019-05-15T19:19:09.675Z,9.08
2019-05-15T19:21:40.937Z,9.04
2019-05-15T19:24:11.791Z,9.06
2019-05-15T19:26:43.379Z,9.03
2019-05-15T19:29:17.821Z,9.01
2019-05-15T19:31:48.528Z,9.04
2019-05-15T19:34:19.630Z,9.05
2019-05-15T19:36:50.464Z,9.03
2019-05-15T19:39:23.282Z,9.05
2019-05-15T19:41:58.278Z,9.01
2019-05-15T19:44:29.693Z,8.99
2019-05-15T19:47:02.958Z,8.95
2019-05-15T19:49:33.919Z,8.96
2019-05-15T19:52:05.039Z,8.89
2019-05-15T19:54:38.222Z,8.97
2019-05-15T19:57:12.815Z,8.97
2019-05-15T19:59:44.725Z,8.88
2019-05-15T20:02:28.566Z,8.92
2019-05-15T20:05:18.422Z,8.93
2019-05-15T20:08:03.226Z,8.95
2019-05-15T20:10:50.070Z,8.94
2019-05-15T20:13:49.669Z,8.99
2019-05-15T20:16:28.593Z,8.94
2019-05-15T20:19:02.791Z,8.84
2019-05-15T20:21:34.454Z,8.85
2019-05-15T20:24:08.498Z,8.79
2019-05-15T20:26:40.061Z,8.79
2019-05-15T20:29:14.189Z,8.73
2019-05-15T20:31:48.205Z,8.72
2019-05-15T20:34:18.238Z,8.68
2019-05-15T20:36:49.437Z,8.74
2019-05-15T20:39:21.205Z,8.76
2019-05-15T20:42:08.864Z,8.76
2019-05-15T20:45:08.378Z,8.78
2019-05-15T20:47:43.677Z,8.76
2019-05-15T20:50:15.231Z,8.80
2019-05-15T20:52:48.833Z,8.78
2019-05-15T20:55:19.098Z,8.75
2019-05-15T20:58:01.424Z,8.76
2019-05-15T21:00:40.795Z,8.74
2019-05-15T21:03:23.190Z,8.72
2019-05-15T21:05:57.737Z,8.77
2019-05-15T21:08:31.795Z,8.76
2019-05-15T21:11:04.073Z,8.82
2019-05-15T21:13:35.396Z,8.80
2019-05-15T21:16:08.342Z,8.81
2019-05-15T21:18:41.548Z,8.73
2019-05-15T21:21:12.834Z,8.74
2019-05-15T21:23:44.138Z,8.76
2019-05-15T21:26:18.605Z,8.75
2019-05-15T21:28:49.619Z,8.72
2019-05-15T21:31:22.106Z,8.74
2019-05-15T21:33:53.432Z,8.69
2019-05-15T21:36:24.863Z,8.70
2019-05-15T21:38:58.516Z,8.79
2019-05-15T21:41:29.299Z,8.77
2019-05-15T21:44:01.061Z,8.77
2019-05-15T21:46:32.702Z,8.83
2019-05-15T21:49:04.031Z,8.79
2019-05-15T21:51:35.357Z,8.84
2019-05-15T21:54:06.705Z,8.88
2019-05-15T21:56:38.766Z,8.81
2019-05-15T21:59:09.848Z,8.78
2019-05-15T22:01:42.181Z,8.79
2019-05-15T22:04:13.839Z,8.72
2019-05-15T22:06:45.632Z,8.78
2019-05-15T22:09:18.705Z,8.77
2019-05-15T22:11:50.217Z,8.82
2019-05-15T22:14:21.605Z,8.85
2019-05-15T22:16:53.145Z,8.88
2019-05-15T22:19:25.054Z,8.86
2019-05-15T22:21:58.205Z,8.86
2019-05-15T22:24:29.182Z,8.87
2019-05-15T22:27:00.092Z,8.89
2019-05-15T22:29:31.544Z,8.83
2019-05-15T22:32:03.100Z,8.88
2019-05-15T22:34:34.437Z,8.84
2019-05-15T22:37:08.950Z,8.81
2019-05-15T22:39:39.702Z,8.86
2019-05-15T22:42:11.622Z,8.80
2019-05-15T22:44:42.807Z,8.84
2019-05-15T22:47:13.766Z,8.84
2019-05-15T22:49:45.063Z,8.82
2019-05-15T22:52:18.454Z,8.84
2019-05-15T22:54:49.150Z,8.86
2019-05-15T22:57:20.266Z,8.85
2019-05-15T22:59:51.322Z,8.84
2019-05-15T23:02:22.836Z,8.84
2019-05-15T23:04:54.419Z,8.86
2019-05-15T23:07:28.008Z,8.87
2019-05-15T23:09:59.192Z,8.92
2019-05-15T23:12:30.619Z,8.93
2019-05-15T23:15:02.300Z,8.97
2019-05-15T23:17:33.581Z,8.98
2019-05-15T23:20:08.667Z,9.00
2019-05-15T23:22:40.307Z,9.00
2019-05-15T23:25:12.035Z,8.96
2019-05-15T23:27:43.768Z,9.02
2019-05-15T23:30:14.933Z,8.98
2019-05-15T23:32:48.637Z,8.99
2019-05-15T23:35:19.258Z,9.04
2019-05-15T23:37:50.300Z,9.00
2019-05-15T23:40:21.582Z,9.04
2019-05-15T23:42:53.181Z,9.07
2019-05-15T23:45:24.581Z,9.09
2019-05-15T23:47:57.991Z,9.10
2019-05-15T23:50:29.047Z,9.17
2019-05-15T23:53:00.439Z,9.16
2019-05-15T23:55:32.013Z,9.19
2019-05-15T23:58:03.871Z,9.19
